createdAt,value
2022-10-17T00:01:14.122Z,8.93
2022-10-17T00:03:42.523Z,7.47
2022-10-17T00:06:15.391Z,10.32
2022-10-17T00:08:45.033Z,8.63
2022-10-17T00:11:18.183Z,10.27
2022-10-17T00:13:48.335Z,12.75
2022-10-17T00:16:23.575Z,8.73
2022-10-17T00:18:51.631Z,8.80
2022-10-17T00:21:22.536Z,9.05
2022-10-17T00:23:50.770Z,9.90
2022-10-17T00:26:19.300Z,8.45
2022-10-17T00:28:48.607Z,8.32
2022-10-17T00:31:19.107Z,9.13
2022-10-17T00:33:48.206Z,8.85
2022-10-17T00:36:22.005Z,13.77
2022-10-17T00:38:54.070Z,10.82
2022-10-17T00:41:26.033Z,15.88
2022-10-17T00:44:00.441Z,9.35
2022-10-17T00:46:31.441Z,9.13
2022-10-17T00:49:05.232Z,13.48
2022-10-17T00:51:41.776Z,12.48
2022-10-17T00:54:12.314Z,10.88
2022-10-17T00:56:40.679Z,11.43
2022-10-17T00:59:13.223Z,11.27
2022-10-17T01:01:42.955Z,10.68
2022-10-17T01:04:11.815Z,7.35
2022-10-17T01:06:42.373Z,8.80
2022-10-17T01:09:10.877Z,12.88
2022-10-17T01:11:51.741Z,8.35
2022-10-17T01:14:31.448Z,12.18
2022-10-17T01:17:10.174Z,7.68
2022-10-17T01:20:09.849Z,11.63
2022-10-17T01:22:48.167Z,8.00
2022-10-17T01:25:31.148Z,14.80
2022-10-17T01:28:27.000Z,12.68
2022-10-17T01:31:08.731Z,8.65
2022-10-17T01:33:50.376Z,10.77
2022-10-17T01:36:38.285Z,9.10
2022-10-17T01:39:19.473Z,9.35
2022-10-17T01:41:57.061Z,8.45
2022-10-17T01:44:37.294Z,9.45
2022-10-17T01:47:14.127Z,9.70
2022-10-17T01:49:46.627Z,9.50
2022-10-17T01:52:21.669Z,12.65
2022-10-17T01:54:55.533Z,10.43
2022-10-17T01:57:30.919Z,11.05
2022-10-17T02:00:01.309Z,6.80
2022-10-17T02:02:34.198Z,12.68
2022-10-17T02:05:04.806Z,8.23
2022-10-17T02:07:32.999Z,12.45
2022-10-17T02:10:01.089Z,11.35
2022-10-17T02:12:48.587Z,12.45
2022-10-17T02:15:45.562Z,8.77
2022-10-17T02:18:37.319Z,8.00
2022-10-17T02:21:16.465Z,6.70
2022-10-17T02:23:55.188Z,12.10
2022-10-17T02:26:32.282Z,9.18
2022-10-17T02:29:11.458Z,8.25
2022-10-17T02:31:46.192Z,12.52
2022-10-17T02:34:20.798Z,9.90
2022-10-17T02:36:55.885Z,8.40
2022-10-17T02:39:27.692Z,11.90
2022-10-17T02:42:01.926Z,8.02
2022-10-17T02:44:32.853Z,8.27
2022-10-17T02:47:10.030Z,10.43
2022-10-17T02:49:45.798Z,7.35
2022-10-17T02:52:23.286Z,5.80
2022-10-17T02:54:57.953Z,7.82
2022-10-17T02:57:33.249Z,8.10
2022-10-17T03:00:04.603Z,6.65
2022-10-17T03:02:41.901Z,5.60
2022-10-17T03:05:17.334Z,6.32
2022-10-17T03:07:45.828Z,8.55
2022-10-17T03:10:14.468Z,5.68
2022-10-17T03:12:43.039Z,7.80
2022-10-17T03:15:13.440Z,5.70
2022-10-17T03:17:42.281Z,5.30
2022-10-17T03:20:12.843Z,5.75
2022-10-17T03:22:41.567Z,6.13
2022-10-17T03:25:11.435Z,6.72
2022-10-17T03:27:39.479Z,7.78
2022-10-17T03:30:09.988Z,11.05
2022-10-17T03:32:38.256Z,7.47
2022-10-17T03:35:09.224Z,8.18
2022-10-17T03:37:41.846Z,8.90
2022-10-17T03:40:11.211Z,6.60
2022-10-17T03:42:39.392Z,6.88
2022-10-17T03:45:08.623Z,7.45
2022-10-17T03:47:37.833Z,5.50
2022-10-17T03:50:07.503Z,6.28
2022-10-17T03:52:38.129Z,5.57
2022-10-17T03:55:08.914Z,5.15
2022-10-17T03:57:40.145Z,6.32
2022-10-17T04:00:13.273Z,5.70
2022-10-17T04:02:44.891Z,6.97
2022-10-17T04:05:18.864Z,7.82
2022-10-17T04:07:47.837Z,6.28
2022-10-17T04:10:19.607Z,6.80
2022-10-17T04:12:48.591Z,6.55
2022-10-17T04:15:16.759Z,5.70
2022-10-17T04:17:48.448Z,4.97
2022-10-17T04:20:17.206Z,5.35
2022-10-17T04:22:45.394Z,6.30
2022-10-17T04:25:14.624Z,6.97
2022-10-17T04:27:49.021Z,5.68
2022-10-17T04:30:18.004Z,6.13
2022-10-17T04:32:46.954Z,4.88
2022-10-17T04:35:21.023Z,5.40
2022-10-17T04:37:55.299Z,7.65
2022-10-17T04:40:23.389Z,5.03
2022-10-17T04:42:55.222Z,5.65
2022-10-17T04:45:30.122Z,6.25
2022-10-17T04:48:01.915Z,6.10
2022-10-17T04:50:30.169Z,4.57
2022-10-17T04:53:19.592Z,5.00
2022-10-17T04:55:49.115Z,6.55
2022-10-17T04:58:18.970Z,9.15
2022-10-17T05:00:47.961Z,3.67
2022-10-17T05:03:22.397Z,5.43
2022-10-17T05:05:50.530Z,8.77
2022-10-17T05:08:19.105Z,4.25
2022-10-17T05:10:47.467Z,6.65
2022-10-17T05:13:17.737Z,3.80
2022-10-17T05:15:46.009Z,6.45
2022-10-17T05:18:14.334Z,9.88
2022-10-17T05:20:44.905Z,5.38
2022-10-17T05:23:13.097Z,3.70
2022-10-17T05:25:44.161Z,7.45
2022-10-17T05:28:12.916Z,5.85
2022-10-17T05:30:44.747Z,3.88
2022-10-17T05:33:12.874Z,5.85
2022-10-17T05:35:41.741Z,4.97
2022-10-17T05:38:09.980Z,5.07
2022-10-17T05:40:39.994Z,3.90
2022-10-17T05:43:08.103Z,4.47
2022-10-17T05:45:37.591Z,5.32
2022-10-17T05:48:08.947Z,6.30
2022-10-17T05:50:37.335Z,4.82
2022-10-17T05:53:13.318Z,4.32
2022-10-17T05:55:46.589Z,7.38
2022-10-17T05:58:22.078Z,4.25
2022-10-17T06:01:00.510Z,6.63
2022-10-17T06:03:31.484Z,5.22
2022-10-17T06:06:05.855Z,7.43
2022-10-17T06:08:34.367Z,4.13
2022-10-17T06:11:06.051Z,5.13
2022-10-17T06:13:37.524Z,5.55
2022-10-17T06:16:11.898Z,4.93
2022-10-17T06:18:41.500Z,6.43
2022-10-17T06:21:12.953Z,6.63
2022-10-17T06:23:45.480Z,6.55
2022-10-17T06:26:35.902Z,6.63
2022-10-17T06:29:04.607Z,8.50
2022-10-17T06:31:36.993Z,5.47
2022-10-17T06:34:06.516Z,6.20
2022-10-17T06:36:34.783Z,9.18
2022-10-17T06:39:02.916Z,7.05
2022-10-17T06:41:37.583Z,8.13
2022-10-17T06:44:11.123Z,7.63
2022-10-17T06:47:08.568Z,6.70
2022-10-17T06:49:37.982Z,8.73
2022-10-17T06:52:44.857Z,11.52
2022-10-17T06:55:35.900Z,7.00
2022-10-17T06:58:16.679Z,8.93
2022-10-17T07:00:56.375Z,12.10
2022-10-17T07:03:26.680Z,11.82
2022-10-17T07:05:57.214Z,6.45
2022-10-17T07:08:26.733Z,8.50
2022-10-17T07:10:55.797Z,5.85
2022-10-17T07:13:24.908Z,9.25
2022-10-17T07:15:53.035Z,6.82
2022-10-17T07:18:21.379Z,8.48
2022-10-17T07:20:56.309Z,7.35
2022-10-17T07:23:24.986Z,14.18
2022-10-17T07:25:54.448Z,5.85
2022-10-17T07:28:23.546Z,9.70
2022-10-17T07:30:53.793Z,7.10
2022-10-17T07:33:23.149Z,8.88
2022-10-17T07:35:52.701Z,7.28
2022-10-17T07:38:22.281Z,5.20
2022-10-17T07:40:56.356Z,8.63
2022-10-17T07:43:25.679Z,6.80
2022-10-17T07:45:56.286Z,8.75
2022-10-17T07:48:25.980Z,6.50
2022-10-17T07:50:54.368Z,7.88
2022-10-17T07:53:23.864Z,6.50
2022-10-17T07:55:52.103Z,5.47
2022-10-17T07:58:20.188Z,7.93
2022-10-17T08:00:50.918Z,6.63
2022-10-17T08:03:19.346Z,5.20
2022-10-17T08:05:47.446Z,4.32
2022-10-17T08:08:15.509Z,4.97
2022-10-17T08:10:44.949Z,5.45
2022-10-17T08:13:13.055Z,8.45
2022-10-17T08:15:41.217Z,5.32
2022-10-17T08:18:09.398Z,4.63
2022-10-17T08:20:38.271Z,4.97
2022-10-17T08:23:06.307Z,4.55
2022-10-17T08:25:34.515Z,6.00
2022-10-17T08:28:04.012Z,5.55
2022-10-17T08:30:32.158Z,6.38
2022-10-17T08:33:00.286Z,7.35
2022-10-17T08:35:28.804Z,5.47
2022-10-17T08:37:59.398Z,10.02
2022-10-17T08:40:33.573Z,10.98
2022-10-17T08:43:33.300Z,8.43
2022-10-17T08:46:07.819Z,7.47
2022-10-17T08:48:45.499Z,8.40
2022-10-17T08:51:20.793Z,8.98
2022-10-17T08:53:56.719Z,7.80
2022-10-17T08:56:44.553Z,7.82
2022-10-17T08:59:24.172Z,8.48
2022-10-17T09:02:02.131Z,7.80
2022-10-17T09:05:01.881Z,5.00
2022-10-17T09:07:42.713Z,4.95
2022-10-17T09:10:19.279Z,5.22
2022-10-17T09:12:56.169Z,9.55
2022-10-17T09:15:43.543Z,5.80
2022-10-17T09:18:21.089Z,6.75
2022-10-17T09:20:56.034Z,4.93
2022-10-17T09:23:28.028Z,5.50
2022-10-17T09:26:00.237Z,4.97
2022-10-17T09:28:33.545Z,6.82
2022-10-17T09:31:12.525Z,7.28
2022-10-17T09:33:54.220Z,6.80
2022-10-17T09:36:45.886Z,6.70
2022-10-17T09:39:22.730Z,8.73
2022-10-17T09:42:01.385Z,10.65
2022-10-17T09:44:36.072Z,8.38
2022-10-17T09:47:31.583Z,5.32
2022-10-17T09:50:04.314Z,6.88
2022-10-17T09:52:44.972Z,6.55
2022-10-17T09:55:21.952Z,4.50
2022-10-17T09:57:57.728Z,11.27
2022-10-17T10:00:29.413Z,6.32
2022-10-17T10:03:16.480Z,7.38
2022-10-17T10:06:01.051Z,4.82
2022-10-17T10:08:33.090Z,5.15
2022-10-17T10:11:13.396Z,6.22
2022-10-17T10:13:43.778Z,6.03
2022-10-17T10:16:24.163Z,5.60
2022-10-17T10:18:54.192Z,8.13
2022-10-17T10:21:24.882Z,5.93
2022-10-17T10:24:14.426Z,8.77
2022-10-17T10:26:46.645Z,14.02
2022-10-17T10:29:30.703Z,7.47
2022-10-17T10:32:09.976Z,11.25
2022-10-17T10:34:49.729Z,7.45
2022-10-17T10:37:22.711Z,5.15
2022-10-17T10:39:53.893Z,6.60
2022-10-17T10:42:28.547Z,10.32
2022-10-17T10:45:03.661Z,7.55
2022-10-17T10:47:33.677Z,7.13
2022-10-17T10:50:23.619Z,6.60
2022-10-17T10:53:04.805Z,6.65
2022-10-17T10:55:41.077Z,8.98
2022-10-17T10:58:33.623Z,7.07
2022-10-17T11:01:08.349Z,10.43
2022-10-17T11:03:45.521Z,6.20
2022-10-17T11:06:24.966Z,7.95
2022-10-17T11:09:07.662Z,8.70
2022-10-17T11:11:41.486Z,9.32
2022-10-17T11:14:19.545Z,6.30
2022-10-17T11:16:57.089Z,7.07
2022-10-17T11:19:32.815Z,6.95
2022-10-17T11:22:15.959Z,5.35
2022-10-17T11:24:56.913Z,6.68
2022-10-17T11:27:26.912Z,5.65
2022-10-17T11:29:55.239Z,9.07
2022-10-17T11:32:31.521Z,8.23
2022-10-17T11:35:06.627Z,5.10
2022-10-17T11:37:48.361Z,6.13
2022-10-17T11:40:26.025Z,9.43
2022-10-17T11:43:01.019Z,7.10
2022-10-17T11:45:35.631Z,7.57
2022-10-17T11:48:11.696Z,7.82
2022-10-17T11:53:49.119Z,9.52
2022-10-17T11:56:27.647Z,13.98
2022-10-17T11:59:09.133Z,8.25
2022-10-17T12:01:47.674Z,7.85
2022-10-17T12:04:32.194Z,7.57
2022-10-17T12:07:16.397Z,8.43
2022-10-17T12:09:53.475Z,7.38
2022-10-17T12:12:30.953Z,13.07
2022-10-17T12:15:31.119Z,8.02
2022-10-17T12:18:02.617Z,8.40
2022-10-17T12:20:34.764Z,9.25
2022-10-17T12:23:28.231Z,11.00
2022-10-17T12:26:03.400Z,8.93
2022-10-17T12:28:34.651Z,13.90
2022-10-17T12:31:09.849Z,9.48
2022-10-17T12:33:49.257Z,7.88
2022-10-17T12:36:42.116Z,11.80
2022-10-17T12:39:50.335Z,10.02
2022-10-17T12:42:52.092Z,8.70
2022-10-17T12:45:49.881Z,13.10
2022-10-17T12:49:00.141Z,13.50
2022-10-17T12:51:37.968Z,11.93
2022-10-17T12:54:14.923Z,11.38
2022-10-17T12:56:46.112Z,11.77
2022-10-17T12:59:20.921Z,12.45
2022-10-17T13:01:55.631Z,11.30
2022-10-17T13:04:25.002Z,15.85
2022-10-17T13:06:56.672Z,10.13
2022-10-17T13:09:30.089Z,12.95
2022-10-17T13:12:02.450Z,13.93
2022-10-17T13:14:34.977Z,14.25
2022-10-17T13:17:06.435Z,16.63
2022-10-17T13:19:44.643Z,14.02
2022-10-17T13:22:18.841Z,19.13
2022-10-17T13:24:47.987Z,14.23
2022-10-17T13:27:30.214Z,16.48
2022-10-17T13:30:26.679Z,13.57
2022-10-17T13:32:58.190Z,13.07
2022-10-17T13:35:48.557Z,17.63
2022-10-17T13:38:23.815Z,12.23
2022-10-17T13:40:53.722Z,14.05
2022-10-17T13:43:32.149Z,11.60
2022-10-17T13:46:25.336Z,13.10
2022-10-17T13:48:54.429Z,18.15
2022-10-17T13:51:24.529Z,20.08
2022-10-17T13:53:52.700Z,11.85
2022-10-17T13:56:29.635Z,13.38
2022-10-17T13:59:03.425Z,12.23
2022-10-17T14:01:33.605Z,14.73
2022-10-17T14:04:08.789Z,15.85
2022-10-17T14:06:46.208Z,15.98
2022-10-17T14:09:24.520Z,11.80
2022-10-17T14:12:03.572Z,14.50
2022-10-17T14:14:51.602Z,17.20
2022-10-17T14:17:27.644Z,14.90
2022-10-17T14:23:21.018Z,12.75
2022-10-17T14:25:42.400Z,15.38
2022-10-17T14:28:18.300Z,15.23
2022-10-17T14:30:57.177Z,17.42
2022-10-17T14:33:31.919Z,17.83
2022-10-17T14:36:03.958Z,13.82
2022-10-17T14:38:32.946Z,14.43
2022-10-17T14:43:58.956Z,20.58
2022-10-17T14:46:28.569Z,18.48
2022-10-17T14:49:21.808Z,13.52
2022-10-17T14:52:27.401Z,19.75
2022-10-17T14:54:57.195Z,17.60
2022-10-17T14:57:35.724Z,17.50
2022-10-17T15:00:04.934Z,15.18
2022-10-17T15:02:33.264Z,19.77
2022-10-17T15:05:03.129Z,14.32
2022-10-17T15:07:31.292Z,16.15
2022-10-17T15:09:59.396Z,18.55
2022-10-17T15:12:28.202Z,14.45
2022-10-17T15:14:56.413Z,19.17
2022-10-17T15:17:27.476Z,18.38
2022-10-17T15:19:55.935Z,17.60
2022-10-17T15:22:25.785Z,15.57
2022-10-17T15:24:53.942Z,16.05
2022-10-17T15:27:26.293Z,14.35
2022-10-17T15:29:54.381Z,19.17
2022-10-17T15:32:22.452Z,18.55
2022-10-17T15:34:50.641Z,16.88
2022-10-17T15:37:22.371Z,18.38
2022-10-17T15:39:54.394Z,18.63
2022-10-17T15:42:27.217Z,17.38
2022-10-17T15:44:55.627Z,19.80
2022-10-17T15:47:28.761Z,19.42
2022-10-17T15:49:58.011Z,21.65
2022-10-17T15:52:26.813Z,17.58
2022-10-17T15:54:58.512Z,19.63
2022-10-17T15:57:32.877Z,18.75
2022-10-17T16:00:01.649Z,18.08
2022-10-17T16:02:29.815Z,23.77
2022-10-17T16:04:58.068Z,16.40
2022-10-17T16:07:26.584Z,19.67
2022-10-17T16:09:56.086Z,20.08
2022-10-17T16:12:31.098Z,21.50
2022-10-17T16:14:59.472Z,16.55
2022-10-17T16:17:27.731Z,18.02
2022-10-17T16:19:56.031Z,18.80
2022-10-17T16:22:32.414Z,18.77
2022-10-17T16:25:09.299Z,17.85
2022-10-17T16:27:38.938Z,18.23
2022-10-17T16:30:09.147Z,18.73
2022-10-17T16:32:37.356Z,18.70
2022-10-17T16:35:06.921Z,17.83
2022-10-17T16:37:35.910Z,21.08
2022-10-17T16:40:06.641Z,22.45
2022-10-17T16:42:34.681Z,18.63
2022-10-17T16:45:02.898Z,19.90
2022-10-17T16:47:31.145Z,23.27
2022-10-17T16:49:59.258Z,23.02
2022-10-17T16:52:27.747Z,19.67
2022-10-17T16:54:56.093Z,18.70
2022-10-17T16:57:25.717Z,18.70
2022-10-17T16:59:53.841Z,18.80
2022-10-17T17:02:22.106Z,20.25
2022-10-17T17:04:50.190Z,21.33
2022-10-17T17:07:19.764Z,17.88
2022-10-17T17:09:47.920Z,20.17
2022-10-17T17:12:16.217Z,19.35
2022-10-17T17:14:45.661Z,18.83
2022-10-17T17:17:24.383Z,17.90
2022-10-17T17:20:02.113Z,16.75
2022-10-17T17:22:30.235Z,20.80
2022-10-17T17:25:01.621Z,19.33
2022-10-17T17:27:30.343Z,20.15
2022-10-17T17:30:00.167Z,20.75
2022-10-17T17:32:28.269Z,17.15
2022-10-17T17:34:56.392Z,18.73
2022-10-17T17:37:24.751Z,20.02
2022-10-17T17:39:52.818Z,19.90
2022-10-17T17:42:21.537Z,19.95
2022-10-17T17:44:50.278Z,21.48
2022-10-17T17:47:19.932Z,19.83
2022-10-17T17:49:48.375Z,20.20
2022-10-17T17:52:16.688Z,18.67
2022-10-17T17:54:46.013Z,22.83
2022-10-17T17:57:14.112Z,21.73
2022-10-17T17:59:42.211Z,23.35
2022-10-17T18:02:11.049Z,24.60
2022-10-17T18:04:40.676Z,25.75
2022-10-17T18:07:08.943Z,24.23
2022-10-17T18:09:37.055Z,22.05
2022-10-17T18:12:05.868Z,26.15
2022-10-17T18:14:33.941Z,27.17
2022-10-17T18:17:02.347Z,30.73
2022-10-17T18:19:30.551Z,25.00
2022-10-17T18:22:00.105Z,29.30
2022-10-17T18:24:28.331Z,27.48
2022-10-17T18:26:59.725Z,26.48
2022-10-17T18:29:29.408Z,30.35
2022-10-17T18:31:57.659Z,26.77
2022-10-17T18:34:27.173Z,29.55
2022-10-17T18:36:55.809Z,27.10
2022-10-17T18:39:25.575Z,27.50
2022-10-17T18:41:53.886Z,27.63
2022-10-17T18:44:22.937Z,28.95
2022-10-17T18:46:51.326Z,28.90
2022-10-17T18:49:23.062Z,28.92
2022-10-17T18:51:51.291Z,30.35
2022-10-17T18:54:22.065Z,27.63
2022-10-17T18:56:54.053Z,27.23
2022-10-17T18:59:23.120Z,25.40
2022-10-17T19:01:51.309Z,25.80
2022-10-17T19:04:19.588Z,25.25
2022-10-17T19:06:47.694Z,14.38
2022-10-17T19:09:16.498Z,12.32
2022-10-17T19:11:44.854Z,10.68
2022-10-17T19:14:14.519Z,8.90
2022-10-17T19:16:45.479Z,8.35
2022-10-17T19:19:16.641Z,8.23
2022-10-17T19:21:45.725Z,8.63
2022-10-17T19:24:17.647Z,9.70
2022-10-17T19:26:50.095Z,7.68
2022-10-17T19:29:19.733Z,7.30
2022-10-17T19:31:49.244Z,9.57
2022-10-17T19:34:18.869Z,5.85
2022-10-17T19:36:47.255Z,7.05
2022-10-17T19:39:17.960Z,5.25
2022-10-17T19:41:48.850Z,7.40
2022-10-17T19:44:18.886Z,6.80
2022-10-17T19:46:48.996Z,7.53
2022-10-17T19:49:18.173Z,8.80
2022-10-17T19:51:46.538Z,7.80
2022-10-17T19:54:15.022Z,8.07
2022-10-17T19:56:43.430Z,6.60
2022-10-17T19:59:14.878Z,8.70
2022-10-17T20:01:46.073Z,8.82
2022-10-17T20:04:14.571Z,6.28
2022-10-17T20:06:43.578Z,5.95
2022-10-17T20:09:16.621Z,6.80
2022-10-17T20:11:46.177Z,7.30
2022-10-17T20:14:14.552Z,7.80
2022-10-17T20:16:49.973Z,6.43
2022-10-17T20:19:20.011Z,5.75
2022-10-17T20:21:48.237Z,4.80
2022-10-17T20:24:17.951Z,7.63
2022-10-17T20:26:46.804Z,7.18
2022-10-17T20:29:17.957Z,4.72
2022-10-17T20:31:48.803Z,5.68
2022-10-17T20:34:19.689Z,7.05
2022-10-17T20:36:48.844Z,4.95
2022-10-17T20:39:20.314Z,8.50
2022-10-17T20:41:48.786Z,4.78
2022-10-17T20:44:17.265Z,5.15
2022-10-17T20:47:00.600Z,5.30
2022-10-17T20:49:31.513Z,5.10
2022-10-17T20:52:00.153Z,4.90
2022-10-17T20:54:28.801Z,6.20
2022-10-17T20:56:59.869Z,4.65
2022-10-17T20:59:30.897Z,5.10
2022-10-17T21:02:00.455Z,5.45
2022-10-17T21:04:47.170Z,8.40
2022-10-17T21:07:16.049Z,4.80
2022-10-17T21:09:45.350Z,6.78
2022-10-17T21:12:21.573Z,5.82
2022-10-17T21:14:59.333Z,4.50
2022-10-17T21:17:29.297Z,5.50
2022-10-17T21:19:57.420Z,5.47
2022-10-17T21:22:25.798Z,5.05
2022-10-17T21:24:53.980Z,4.63
2022-10-17T21:27:22.182Z,5.15
2022-10-17T21:29:50.285Z,6.53
2022-10-17T21:32:31.998Z,5.20
2022-10-17T21:35:09.135Z,5.85
2022-10-17T21:37:37.268Z,8.07
2022-10-17T21:40:06.899Z,8.73
2022-10-17T21:42:35.086Z,5.82
2022-10-17T21:45:10.502Z,7.00
2022-10-17T21:47:54.956Z,10.68
2022-10-17T21:50:33.912Z,7.57
2022-10-17T21:53:02.037Z,6.57
2022-10-17T21:55:30.310Z,10.07
2022-10-17T21:57:58.468Z,11.52
2022-10-17T22:00:26.702Z,10.35
2022-10-17T22:02:54.916Z,12.10
2022-10-17T22:05:23.012Z,11.13
2022-10-17T22:07:52.453Z,11.57
2022-10-17T22:10:20.866Z,13.45
2022-10-17T22:12:49.044Z,10.57
2022-10-17T22:15:17.396Z,12.35
2022-10-17T22:17:45.561Z,12.68
2022-10-17T22:20:13.822Z,12.02
2022-10-17T22:22:42.044Z,12.75
2022-10-17T22:25:11.766Z,11.68
2022-10-17T22:27:40.199Z,13.77
2022-10-17T22:30:10.086Z,17.10
2022-10-17T22:32:38.347Z,14.60
2022-10-17T22:35:08.111Z,13.38
2022-10-17T22:37:36.294Z,14.32
2022-10-17T22:40:05.658Z,13.52
2022-10-17T22:42:35.279Z,18.08
2022-10-17T22:45:03.573Z,13.60
2022-10-17T22:47:32.721Z,18.17
2022-10-17T22:50:03.378Z,18.77
2022-10-17T22:52:31.970Z,15.30
2022-10-17T22:55:00.362Z,14.32
2022-10-17T22:57:29.828Z,13.82
2022-10-17T22:59:59.295Z,16.15
2022-10-17T23:02:27.489Z,16.90
2022-10-17T23:04:55.723Z,17.80
2022-10-17T23:07:23.942Z,19.67
2022-10-17T23:09:52.298Z,15.75
2022-10-17T23:12:21.061Z,19.58
2022-10-17T23:14:49.256Z,19.08
2022-10-17T23:17:19.036Z,22.02
2022-10-17T23:19:47.210Z,15.63
2022-10-17T23:22:15.385Z,18.35
2022-10-17T23:24:43.489Z,15.20
2022-10-17T23:27:11.616Z,19.27
2022-10-17T23:29:39.799Z,19.20
2022-10-17T23:32:07.917Z,19.75
2022-10-17T23:34:37.384Z,20.83
2022-10-17T23:37:05.571Z,18.58
2022-10-17T23:39:33.671Z,20.00
2022-10-17T23:42:01.764Z,19.83
2022-10-17T23:44:30.230Z,23.10
2022-10-17T23:46:58.344Z,21.88
2022-10-17T23:49:26.815Z,20.92
2022-10-17T23:51:56.361Z,21.98
2022-10-17T23:54:24.681Z,24.80
2022-10-17T23:56:52.929Z,19.38
2022-10-17T23:59:21.081Z,22.20
